sensor_id;sensor_type;location;lat;lon;timestamp;pressure;altitude;pressure_sealevel;temperature;humidity
33953;BME280;20231;42.710;23.280;2023-02-22T00:00:35;94929.13;;;13.35;37.11
33953;BME280;20231;42.710;23.280;2023-02-22T00:03:24;94927.97;;;13.27;37.19
33953;BME280;20231;42.710;23.280;2023-02-22T00:05:56;94932.66;;;13.30;37.36
33953;BME280;20231;42.710;23.280;2023-02-22T00:08:27;94934.34;;;13.26;37.34
33953;BME280;20231;42.710;23.280;2023-02-22T00:10:58;94926.09;;;13.28;37.07
33953;BME280;20231;42.710;23.280;2023-02-22T00:13:23;94926.22;;;13.36;37.07
33953;BME280;20231;42.710;23.280;2023-02-22T00:15:49;94924.41;;;13.45;36.79
33953;BME280;20231;42.710;23.280;2023-02-22T00:18:16;94916.00;;;13.30;37.04
33953;BME280;20231;42.710;23.280;2023-02-22T00:20:42;94931.19;;;13.51;36.73
33953;BME280;20231;42.710;23.280;2023-02-22T00:23:15;94923.91;;;13.43;36.78
33953;BME280;20231;42.710;23.280;2023-02-22T00:25:43;94918.94;;;13.28;37.00
33953;BME280;20231;42.710;23.280;2023-02-22T00:28:09;94927.75;;;13.37;36.91
33953;BME280;20231;42.710;23.280;2023-02-22T00:30:34;94915.00;;;13.26;36.95
33953;BME280;20231;42.710;23.280;2023-02-22T00:33:00;94917.16;;;13.37;36.93
33953;BME280;20231;42.710;23.280;2023-02-22T00:35:29;94926.28;;;13.31;37.15
33953;BME280;20231;42.710;23.280;2023-02-22T00:37:59;94925.03;;;13.15;37.55
33953;BME280;20231;42.710;23.280;2023-02-22T00:40:28;94911.47;;;13.17;37.43
33953;BME280;20231;42.710;23.280;2023-02-22T00:42:55;94914.31;;;13.34;37.36
33953;BME280;20231;42.710;23.280;2023-02-22T00:45:22;94911.00;;;13.28;37.34
33953;BME280;20231;42.710;23.280;2023-02-22T00:47:48;94916.28;;;13.28;37.48
33953;BME280;20231;42.710;23.280;2023-02-22T00:50:15;94907.81;;;13.40;37.09
33953;BME280;20231;42.710;23.280;2023-02-22T00:52:41;94903.31;;;13.13;37.67
33953;BME280;20231;42.710;23.280;2023-02-22T00:55:09;94897.63;;;13.06;37.73
33953;BME280;20231;42.710;23.280;2023-02-22T00:57:35;94904.22;;;12.95;38.34
33953;BME280;20231;42.710;23.280;2023-02-22T01:00:06;94896.97;;;13.01;38.24
33953;BME280;20231;42.710;23.280;2023-02-22T01:02:41;94897.03;;;12.96;38.24
33953;BME280;20231;42.710;23.280;2023-02-22T01:05:08;94899.72;;;13.09;38.01
33953;BME280;20231;42.710;23.280;2023-02-22T01:07:37;94894.09;;;13.11;38.02
33953;BME280;20231;42.710;23.280;2023-02-22T01:10:02;94884.09;;;12.94;38.40
33953;BME280;20231;42.710;23.280;2023-02-22T01:12:28;94892.34;;;13.06;38.34
33953;BME280;20231;42.710;23.280;2023-02-22T01:14:54;94895.72;;;12.80;38.56
33953;BME280;20231;42.710;23.280;2023-02-22T01:17:23;94897.94;;;12.91;38.24
33953;BME280;20231;42.710;23.280;2023-02-22T01:19:50;94894.25;;;12.74;38.70
33953;BME280;20231;42.710;23.280;2023-02-22T01:22:15;94890.44;;;12.80;38.63
33953;BME280;20231;42.710;23.280;2023-02-22T01:24:42;94869.94;;;12.85;38.42
33953;BME280;20231;42.710;23.280;2023-02-22T01:27:07;94881.06;;;12.87;38.36
33953;BME280;20231;42.710;23.280;2023-02-22T01:29:35;94878.41;;;12.87;38.42
33953;BME280;20231;42.710;23.280;2023-02-22T01:32:00;94880.50;;;12.72;38.56
33953;BME280;20231;42.710;23.280;2023-02-22T01:34:26;94889.94;;;12.78;38.70
33953;BME280;20231;42.710;23.280;2023-02-22T01:36:51;94874.81;;;12.65;38.57
33953;BME280;20231;42.710;23.280;2023-02-22T01:39:16;94877.88;;;12.72;38.69
33953;BME280;20231;42.710;23.280;2023-02-22T01:41:45;94863.25;;;12.61;38.61
33953;BME280;20231;42.710;23.280;2023-02-22T01:46:42;94892.75;;;12.55;39.05
33953;BME280;20231;42.710;23.280;2023-02-22T01:49:08;94874.69;;;12.43;38.99
33953;BME280;20231;42.710;23.280;2023-02-22T01:51:43;94875.22;;;12.27;39.87
33953;BME280;20231;42.710;23.280;2023-02-22T01:54:20;94892.22;;;12.08;40.17
33953;BME280;20231;42.710;23.280;2023-02-22T01:56:56;94865.72;;;12.26;39.41
33953;BME280;20231;42.710;23.280;2023-02-22T01:59:27;94880.22;;;12.28;39.41
33953;BME280;20231;42.710;23.280;2023-02-22T02:01:58;94873.97;;;12.06;39.54
33953;BME280;20231;42.710;23.280;2023-02-22T02:04:23;94885.81;;;12.27;39.02
33953;BME280;20231;42.710;23.280;2023-02-22T02:06:55;94884.00;;;12.09;39.15
33953;BME280;20231;42.710;23.280;2023-02-22T02:09:32;94899.22;;;12.17;39.43
33953;BME280;20231;42.710;23.280;2023-02-22T02:12:00;94883.44;;;12.12;39.25
33953;BME280;20231;42.710;23.280;2023-02-22T02:14:27;94884.78;;;12.09;39.40
33953;BME280;20231;42.710;23.280;2023-02-22T02:16:56;94879.13;;;12.16;39.45
33953;BME280;20231;42.710;23.280;2023-02-22T02:19:47;94898.03;;;11.91;39.86
33953;BME280;20231;42.710;23.280;2023-02-22T02:38:54;94904.59;;;11.75;40.35
33953;BME280;20231;42.710;23.280;2023-02-22T02:41:33;94876.44;;;11.66;40.04
33953;BME280;20231;42.710;23.280;2023-02-22T02:44:46;94907.81;;;11.72;40.45
33953;BME280;20231;42.710;23.280;2023-02-22T02:47:13;94902.47;;;11.77;40.20
33953;BME280;20231;42.710;23.280;2023-02-22T02:49:47;94900.41;;;11.74;40.19
33953;BME280;20231;42.710;23.280;2023-02-22T02:52:17;94902.97;;;11.79;39.98
33953;BME280;20231;42.710;23.280;2023-02-22T02:54:44;94905.94;;;11.73;40.29
33953;BME280;20231;42.710;23.280;2023-02-22T02:57:10;94901.22;;;11.51;40.51
33953;BME280;20231;42.710;23.280;2023-02-22T02:59:36;94910.63;;;11.39;41.02
33953;BME280;20231;42.710;23.280;2023-02-22T03:13:14;94917.66;;;11.25;41.46
33953;BME280;20231;42.710;23.280;2023-02-22T03:18:49;94911.97;;;11.37;41.45
33953;BME280;20231;42.710;23.280;2023-02-22T03:23:49;94894.91;;;11.71;40.83
33953;BME280;20231;42.710;23.280;2023-02-22T03:26:23;94907.19;;;11.80;40.46
33953;BME280;20231;42.710;23.280;2023-02-22T03:28:53;94873.44;;;11.36;41.01
33953;BME280;20231;42.710;23.280;2023-02-22T03:31:25;94913.81;;;11.59;41.02
33953;BME280;20231;42.710;23.280;2023-02-22T03:33:57;94899.91;;;11.72;40.71
33953;BME280;20231;42.710;23.280;2023-02-22T03:36:28;94903.09;;;11.88;40.50
33953;BME280;20231;42.710;23.280;2023-02-22T03:38:57;94909.09;;;11.75;40.64
33953;BME280;20231;42.710;23.280;2023-02-22T03:41:24;94911.53;;;11.90;40.36
33953;BME280;20231;42.710;23.280;2023-02-22T03:43:57;94904.97;;;11.69;40.70
33953;BME280;20231;42.710;23.280;2023-02-22T03:46:25;94902.41;;;11.64;41.13
33953;BME280;20231;42.710;23.280;2023-02-22T03:49:28;94909.16;;;11.51;41.25
33953;BME280;20231;42.710;23.280;2023-02-22T03:51:56;94912.47;;;11.38;41.68
33953;BME280;20231;42.710;23.280;2023-02-22T03:54:22;94904.81;;;11.19;41.76
33953;BME280;20231;42.710;23.280;2023-02-22T03:56:51;94910.09;;;11.19;41.79
33953;BME280;20231;42.710;23.280;2023-02-22T03:59:18;94902.19;;;11.19;41.93
33953;BME280;20231;42.710;23.280;2023-02-22T04:01:49;94912.44;;;11.20;41.81
33953;BME280;20231;42.710;23.280;2023-02-22T04:04:20;94904.59;;;10.92;42.13
33953;BME280;20231;42.710;23.280;2023-02-22T04:06:46;94912.28;;;11.12;41.99
33953;BME280;20231;42.710;23.280;2023-02-22T04:09:16;94908.97;;;11.01;42.00
33953;BME280;20231;42.710;23.280;2023-02-22T04:11:42;94904.38;;;11.12;41.88
33953;BME280;20231;42.710;23.280;2023-02-22T04:14:07;94916.88;;;11.25;41.77
33953;BME280;20231;42.710;23.280;2023-02-22T04:16:33;94911.84;;;11.28;41.35
33953;BME280;20231;42.710;23.280;2023-02-22T04:18:58;94919.31;;;10.98;42.05
33953;BME280;20231;42.710;23.280;2023-02-22T04:21:24;94907.56;;;10.85;42.29
33953;BME280;20231;42.710;23.280;2023-02-22T04:23:49;94915.03;;;11.02;42.21
33953;BME280;20231;42.710;23.280;2023-02-22T04:26:15;94903.38;;;10.84;42.30
33953;BME280;20231;42.710;23.280;2023-02-22T04:28:40;94898.06;;;10.61;42.75
33953;BME280;20231;42.710;23.280;2023-02-22T04:31:05;94929.28;;;10.77;42.65
33953;BME280;20231;42.710;23.280;2023-02-22T04:33:31;94914.81;;;10.75;42.58
33953;BME280;20231;42.710;23.280;2023-02-22T04:35:56;94924.69;;;10.65;42.96
33953;BME280;20231;42.710;23.280;2023-02-22T04:38:22;94918.91;;;10.86;42.65
33953;BME280;20231;42.710;23.280;2023-02-22T04:40:50;94918.84;;;10.91;42.57
33953;BME280;20231;42.710;23.280;2023-02-22T04:43:16;94905.31;;;10.74;42.64
33953;BME280;20231;42.710;23.280;2023-02-22T04:45:41;94914.44;;;10.30;43.33
33953;BME280;20231;42.710;23.280;2023-02-22T04:48:07;94918.34;;;10.37;43.45
33953;BME280;20231;42.710;23.280;2023-02-22T04:50:32;94916.16;;;10.44;43.35
33953;BME280;20231;42.710;23.280;2023-02-22T04:52:57;94923.75;;;10.51;43.24
33953;BME280;20231;42.710;23.280;2023-02-22T04:55:23;94917.34;;;10.57;43.16
33953;BME280;20231;42.710;23.280;2023-02-22T04:57:48;94917.94;;;10.49;43.21
33953;BME280;20231;42.710;23.280;2023-02-22T05:00:17;94919.22;;;10.28;43.69
33953;BME280;20231;42.710;23.280;2023-02-22T05:02:43;94920.94;;;10.42;43.29
33953;BME280;20231;42.710;23.280;2023-02-22T05:05:09;94926.69;;;10.16;43.71
33953;BME280;20231;42.710;23.280;2023-02-22T05:07:36;94927.44;;;10.21;43.87
33953;BME280;20231;42.710;23.280;2023-02-22T05:10:02;94925.84;;;10.54;43.04
33953;BME280;20231;42.710;23.280;2023-02-22T05:12:27;94922.94;;;10.22;43.53
33953;BME280;20231;42.710;23.280;2023-02-22T05:14:53;94923.00;;;10.17;43.92
33953;BME280;20231;42.710;23.280;2023-02-22T05:17:18;94912.94;;;10.19;43.72
33953;BME280;20231;42.710;23.280;2023-02-22T05:19:43;94941.22;;;10.42;43.43
33953;BME280;20231;42.710;23.280;2023-02-22T05:22:09;94944.78;;;10.56;43.06
33953;BME280;20231;42.710;23.280;2023-02-22T05:24:34;94929.19;;;10.31;43.16
33953;BME280;20231;42.710;23.280;2023-02-22T05:27:00;94922.81;;;10.03;43.97
33953;BME280;20231;42.710;23.280;2023-02-22T05:29:25;94937.53;;;10.09;43.93
33953;BME280;20231;42.710;23.280;2023-02-22T05:31:50;94936.28;;;10.02;44.12
33953;BME280;20231;42.710;23.280;2023-02-22T05:34:16;94944.94;;;10.07;43.85
33953;BME280;20231;42.710;23.280;2023-02-22T05:36:41;94944.94;;;10.07;44.18
33953;BME280;20231;42.710;23.280;2023-02-22T05:39:07;94947.38;;;9.94;44.27
33953;BME280;20231;42.710;23.280;2023-02-22T05:41:32;94935.00;;;9.90;44.41
33953;BME280;20231;42.710;23.280;2023-02-22T05:43:57;94965.00;;;10.03;44.34
33953;BME280;20231;42.710;23.280;2023-02-22T05:46:23;94966.81;;;10.08;44.19
33953;BME280;20231;42.710;23.280;2023-02-22T05:48:49;94959.03;;;9.83;44.81
33953;BME280;20231;42.710;23.280;2023-02-22T05:51:14;94960.59;;;9.89;44.75
33953;BME280;20231;42.710;23.280;2023-02-22T05:53:42;94967.97;;;9.92;44.67
33953;BME280;20231;42.710;23.280;2023-02-22T05:56:08;94964.63;;;9.72;45.01
33953;BME280;20231;42.710;23.280;2023-02-22T05:58:33;94968.25;;;9.86;44.95
33953;BME280;20231;42.710;23.280;2023-02-22T06:00:58;94962.53;;;10.17;53.03
33953;BME280;20231;42.710;23.280;2023-02-22T06:03:24;94982.38;;;10.71;45.59
33953;BME280;20231;42.710;23.280;2023-02-22T06:05:49;94982.78;;;10.60;44.75
33953;BME280;20231;42.710;23.280;2023-02-22T06:08:15;94970.09;;;10.28;44.88
33953;BME280;20231;42.710;23.280;2023-02-22T06:10:42;94984.13;;;10.52;44.11
33953;BME280;20231;42.710;23.280;2023-02-22T06:13:08;94972.19;;;10.31;44.33
33953;BME280;20231;42.710;23.280;2023-02-22T06:15:33;94975.97;;;10.49;43.99
33953;BME280;20231;42.710;23.280;2023-02-22T06:17:59;94985.41;;;10.60;43.79
33953;BME280;20231;42.710;23.280;2023-02-22T06:20:26;94977.97;;;10.62;43.79
33953;BME280;20231;42.710;23.280;2023-02-22T06:22:53;94983.34;;;10.52;43.71
33953;BME280;20231;42.710;23.280;2023-02-22T06:25:22;94971.84;;;10.38;43.98
33953;BME280;20231;42.710;23.280;2023-02-22T06:27:48;94980.06;;;10.36;44.05
33953;BME280;20231;42.710;23.280;2023-02-22T06:30:15;94971.44;;;10.26;43.96
33953;BME280;20231;42.710;23.280;2023-02-22T06:32:41;94971.47;;;10.21;44.07
33953;BME280;20231;42.710;23.280;2023-02-22T06:35:06;94972.97;;;10.32;44.07
33953;BME280;20231;42.710;23.280;2023-02-22T06:37:32;94976.22;;;10.52;43.70
33953;BME280;20231;42.710;23.280;2023-02-22T06:39:57;94966.81;;;10.41;43.77
33953;BME280;20231;42.710;23.280;2023-02-22T06:42:23;94985.44;;;10.83;43.09
33953;BME280;20231;42.710;23.280;2023-02-22T06:44:48;94987.16;;;10.97;43.01
33953;BME280;20231;42.710;23.280;2023-02-22T06:47:14;94994.16;;;10.83;43.53
33953;BME280;20231;42.710;23.280;2023-02-22T06:49:39;94982.31;;;10.81;43.54
33953;BME280;20231;42.710;23.280;2023-02-22T06:52:06;95005.25;;;11.09;43.45
33953;BME280;20231;42.710;23.280;2023-02-22T06:54:32;94987.94;;;10.98;43.47
33953;BME280;20231;42.710;23.280;2023-02-22T06:56:58;94988.88;;;10.83;43.93
33953;BME280;20231;42.710;23.280;2023-02-22T06:59:23;94987.94;;;10.98;43.62
33953;BME280;20231;42.710;23.280;2023-02-22T07:01:49;94968.47;;;10.66;44.11
33953;BME280;20231;42.710;23.280;2023-02-22T07:04:16;94974.34;;;10.86;44.04
33953;BME280;20231;42.710;23.280;2023-02-22T07:06:46;94988.59;;;10.85;44.03
33953;BME280;20231;42.710;23.280;2023-02-22T07:09:12;94970.25;;;10.98;43.68
33953;BME280;20231;42.710;23.280;2023-02-22T07:11:38;94984.88;;;11.14;43.49
33953;BME280;20231;42.710;23.280;2023-02-22T07:14:04;94984.03;;;11.19;43.33
33953;BME280;20231;42.710;23.280;2023-02-22T07:16:29;94986.69;;;11.19;43.38
33953;BME280;20231;42.710;23.280;2023-02-22T07:18:54;94990.88;;;11.20;43.24
33953;BME280;20231;42.710;23.280;2023-02-22T07:21:20;94966.25;;;11.24;43.16
33953;BME280;20231;42.710;23.280;2023-02-22T07:23:53;94984.25;;;11.22;43.21
33953;BME280;20231;42.710;23.280;2023-02-22T07:26:19;94985.38;;;11.39;43.22
33953;BME280;20231;42.710;23.280;2023-02-22T07:28:45;94984.22;;;11.45;42.94
33953;BME280;20231;42.710;23.280;2023-02-22T07:31:10;94977.88;;;11.46;42.94
33953;BME280;20231;42.710;23.280;2023-02-22T07:33:35;94956.31;;;11.39;42.69
33953;BME280;20231;42.710;23.280;2023-02-22T07:36:06;94949.66;;;11.24;42.87
33953;BME280;20231;42.710;23.280;2023-02-22T07:42:09;94883.72;;;11.14;42.35
33953;BME280;20231;42.710;23.280;2023-02-22T07:44:34;94983.25;;;11.83;42.26
33953;BME280;20231;42.710;23.280;2023-02-22T07:47:02;94972.06;;;11.91;41.99
33953;BME280;20231;42.710;23.280;2023-02-22T07:49:27;94966.78;;;11.91;42.17
33953;BME280;20231;42.710;23.280;2023-02-22T07:51:53;94974.41;;;12.11;41.86
33953;BME280;20231;42.710;23.280;2023-02-22T07:54:18;94968.31;;;12.10;41.93
33953;BME280;20231;42.710;23.280;2023-02-22T07:56:47;94975.25;;;12.25;41.62
33953;BME280;20231;42.710;23.280;2023-02-22T07:59:14;94973.25;;;12.35;41.40
33953;BME280;20231;42.710;23.280;2023-02-22T08:01:39;94970.50;;;12.40;41.56
33953;BME280;20231;42.710;23.280;2023-02-22T08:04:07;94967.31;;;12.43;41.44
33953;BME280;20231;42.710;23.280;2023-02-22T08:06:32;94968.06;;;12.44;41.05
33953;BME280;20231;42.710;23.280;2023-02-22T08:08:58;94962.78;;;12.44;41.41
33953;BME280;20231;42.710;23.280;2023-02-22T08:11:24;94961.84;;;12.53;41.23
33953;BME280;20231;42.710;23.280;2023-02-22T08:13:50;94963.84;;;12.61;41.46
33953;BME280;20231;42.710;23.280;2023-02-22T08:16:23;94962.03;;;12.57;41.46
33953;BME280;20231;42.710;23.280;2023-02-22T08:19:06;94966.91;;;12.68;41.32
33953;BME280;20231;42.710;23.280;2023-02-22T08:21:52;94942.66;;;12.61;41.18
33953;BME280;20231;42.710;23.280;2023-02-22T08:24:17;94945.22;;;12.66;41.21
33953;BME280;20231;42.710;23.280;2023-02-22T08:26:44;94953.41;;;12.83;41.20
33953;BME280;20231;42.710;23.280;2023-02-22T08:29:09;94959.06;;;12.95;40.94
33953;BME280;20231;42.710;23.280;2023-02-22T08:31:35;94955.59;;;12.94;40.95
33953;BME280;20231;42.710;23.280;2023-02-22T08:34:00;94948.84;;;13.02;41.13
33953;BME280;20231;42.710;23.280;2023-02-22T08:36:25;94946.31;;;13.10;41.02
33953;BME280;20231;42.710;23.280;2023-02-22T08:38:51;94953.09;;;13.30;40.68
33953;BME280;20231;42.710;23.280;2023-02-22T08:41:16;94937.59;;;13.23;40.63
33953;BME280;20231;42.710;23.280;2023-02-22T08:43:42;94958.28;;;13.48;40.55
33953;BME280;20231;42.710;23.280;2023-02-22T08:46:07;94939.13;;;13.51;40.25
33953;BME280;20231;42.710;23.280;2023-02-22T08:48:33;94947.66;;;13.61;40.37
33953;BME280;20231;42.710;23.280;2023-02-22T08:50:58;94955.13;;;13.73;40.27
33953;BME280;20231;42.710;23.280;2023-02-22T08:53:24;94941.94;;;13.68;40.04
33953;BME280;20231;42.710;23.280;2023-02-22T08:55:49;94944.03;;;13.71;40.43
33953;BME280;20231;42.710;23.280;2023-02-22T08:58:14;94949.59;;;13.83;40.33
33953;BME280;20231;42.710;23.280;2023-02-22T09:00:40;94957.44;;;13.88;40.48
33953;BME280;20231;42.710;23.280;2023-02-22T09:03:08;94945.25;;;14.00;40.08
33953;BME280;20231;42.710;23.280;2023-02-22T09:05:35;94930.03;;;13.92;40.32
33953;BME280;20231;42.710;23.280;2023-02-22T09:08:00;94929.84;;;13.89;40.24
33953;BME280;20231;42.710;23.280;2023-02-22T09:10:33;94949.47;;;14.01;40.36
33953;BME280;20231;42.710;23.280;2023-02-22T09:13:01;94941.22;;;14.03;40.29
33953;BME280;20231;42.710;23.280;2023-02-22T09:15:31;94942.09;;;13.98;40.60
33953;BME280;20231;42.710;23.280;2023-02-22T09:17:58;94936.09;;;13.93;40.91
33953;BME280;20231;42.710;23.280;2023-02-22T09:20:23;94939.38;;;13.90;41.02
33953;BME280;20231;42.710;23.280;2023-02-22T09:22:49;94917.34;;;14.03;40.81
33953;BME280;20231;42.710;23.280;2023-02-22T09:25:16;94936.84;;;14.20;40.57
33953;BME280;20231;42.710;23.280;2023-02-22T09:27:42;94927.81;;;13.86;40.78
33953;BME280;20231;42.710;23.280;2023-02-22T09:30:15;94926.19;;;13.98;40.86
33953;BME280;20231;42.710;23.280;2023-02-22T09:32:41;94932.16;;;14.04;41.21
33953;BME280;20231;42.710;23.280;2023-02-22T09:35:06;94918.69;;;14.14;40.82
33953;BME280;20231;42.710;23.280;2023-02-22T09:37:33;94932.28;;;14.34;40.70
33953;BME280;20231;42.710;23.280;2023-02-22T09:39:58;94925.81;;;14.48;40.76
33953;BME280;20231;42.710;23.280;2023-02-22T09:42:30;94933.53;;;14.58;40.44
33953;BME280;20231;42.710;23.280;2023-02-22T09:45:05;94928.78;;;14.69;40.13
33953;BME280;20231;42.710;23.280;2023-02-22T09:47:47;94923.47;;;14.47;40.36
33953;BME280;20231;42.710;23.280;2023-02-22T09:50:16;94924.97;;;14.61;40.18
33953;BME280;20231;42.710;23.280;2023-02-22T09:52:59;94922.53;;;14.73;40.16
33953;BME280;20231;42.710;23.280;2023-02-22T09:55:38;94925.00;;;14.70;39.90
33953;BME280;20231;42.710;23.280;2023-02-22T09:58:32;94913.03;;;14.50;40.40
33953;BME280;20231;42.710;23.280;2023-02-22T10:07:05;94898.22;;;14.58;40.11
33953;BME280;20231;42.710;23.280;2023-02-22T10:09:40;94898.28;;;14.97;39.35
33953;BME280;20231;42.710;23.280;2023-02-22T10:23:19;94873.19;;;15.67;38.20
33953;BME280;20231;42.710;23.280;2023-02-22T10:25:51;94869.28;;;15.72;38.02
33953;BME280;20231;42.710;23.280;2023-02-22T10:28:24;94854.44;;;15.80;37.72
33953;BME280;20231;42.710;23.280;2023-02-22T10:31:03;94848.63;;;15.53;38.14
33953;BME280;20231;42.710;23.280;2023-02-22T10:33:54;94851.13;;;15.58;38.08
33953;BME280;20231;42.710;23.280;2023-02-22T10:36:21;94854.44;;;15.88;37.98
33953;BME280;20231;42.710;23.280;2023-02-22T10:39:11;94850.97;;;15.88;37.85
33953;BME280;20231;42.710;23.280;2023-02-22T10:41:50;94840.50;;;16.08;37.61
33953;BME280;20231;42.710;23.280;2023-02-22T10:44:18;94825.47;;;15.95;37.49
33953;BME280;20231;42.710;23.280;2023-02-22T10:46:44;94827.47;;;16.07;37.66
33953;BME280;20231;42.710;23.280;2023-02-22T10:49:17;94803.56;;;15.90;38.17
33953;BME280;20231;42.710;23.280;2023-02-22T10:51:44;94816.06;;;15.98;44.30
33953;BME280;20231;42.710;23.280;2023-02-22T10:56:54;94819.16;;;16.42;39.24
33953;BME280;20231;42.710;23.280;2023-02-22T10:59:35;94816.06;;;16.40;38.04
33953;BME280;20231;42.710;23.280;2023-02-22T11:04:51;94806.38;;;16.73;36.87
33953;BME280;20231;42.710;23.280;2023-02-22T11:07:25;94805.47;;;16.98;36.60
33953;BME280;20231;42.710;23.280;2023-02-22T11:10:01;94813.56;;;16.81;35.36
33953;BME280;20231;42.710;23.280;2023-02-22T11:12:36;94801.31;;;16.34;35.81
33953;BME280;20231;42.710;23.280;2023-02-22T11:17:45;94776.59;;;16.79;35.65
33953;BME280;20231;42.710;23.280;2023-02-22T11:20:27;94795.53;;;17.15;35.24
33953;BME280;20231;42.710;23.280;2023-02-22T11:22:55;94781.00;;;17.04;34.92
33953;BME280;20231;42.710;23.280;2023-02-22T11:25:35;94784.03;;;17.23;36.04
33953;BME280;20231;42.710;23.280;2023-02-22T11:28:36;94781.16;;;17.36;35.53
33953;BME280;20231;42.710;23.280;2023-02-22T11:33:38;94766.31;;;17.18;32.89
33953;BME280;20231;42.710;23.280;2023-02-22T11:36:05;94756.53;;;17.02;33.20
33953;BME280;20231;42.710;23.280;2023-02-22T11:38:38;94775.53;;;17.29;33.12
33953;BME280;20231;42.710;23.280;2023-02-22T11:41:14;94777.50;;;17.41;33.22
33953;BME280;20231;42.710;23.280;2023-02-22T11:43:47;94760.91;;;17.56;32.77
33953;BME280;20231;42.710;23.280;2023-02-22T11:46:16;94757.78;;;17.74;32.29
33953;BME280;20231;42.710;23.280;2023-02-22T11:51:32;94760.75;;;17.93;32.22
33953;BME280;20231;42.710;23.280;2023-02-22T12:20:45;94734.22;;;18.08;30.89
33953;BME280;20231;42.710;23.280;2023-02-22T12:23:20;94708.06;;;18.14;31.06
33953;BME280;20231;42.710;23.280;2023-02-22T12:26:19;94721.41;;;18.34;30.79
33953;BME280;20231;42.710;23.280;2023-02-22T12:29:01;94724.75;;;18.55;30.43
33953;BME280;20231;42.710;23.280;2023-02-22T12:31:30;94742.59;;;18.63;30.25
33953;BME280;20231;42.710;23.280;2023-02-22T12:36:35;94713.66;;;18.77;29.65
33953;BME280;20231;42.710;23.280;2023-02-22T12:41:59;94714.00;;;18.75;29.62
33953;BME280;20231;42.710;23.280;2023-02-22T12:44:34;94712.31;;;18.71;29.79
33953;BME280;20231;42.710;23.280;2023-02-22T12:47:01;94716.19;;;18.38;29.63
33953;BME280;20231;42.710;23.280;2023-02-22T12:55:03;94712.56;;;18.66;32.80
33953;BME280;20231;42.710;23.280;2023-02-22T12:57:50;94703.94;;;18.84;34.93
33953;BME280;20231;42.710;23.280;2023-02-22T13:00:24;94705.88;;;18.72;29.91
33953;BME280;20231;42.710;23.280;2023-02-22T13:03:00;94687.91;;;18.49;30.12
33953;BME280;20231;42.710;23.280;2023-02-22T13:05:30;94699.06;;;18.63;29.55
33953;BME280;20231;42.710;23.280;2023-02-22T13:10:57;94696.41;;;18.63;31.65
33953;BME280;20231;42.710;23.280;2023-02-22T13:16:23;94693.25;;;18.84;30.60
33953;BME280;20231;42.710;23.280;2023-02-22T13:21:39;94690.13;;;18.70;29.68
33953;BME280;20231;42.710;23.280;2023-02-22T13:26:48;94682.78;;;18.91;30.69
33953;BME280;20231;42.710;23.280;2023-02-22T13:29:19;94684.91;;;19.22;30.29
33953;BME280;20231;42.710;23.280;2023-02-22T13:32:55;94695.09;;;19.43;29.60
33953;BME280;20231;42.710;23.280;2023-02-22T13:54:08;94674.22;;;19.10;29.47
33953;BME280;20231;42.710;23.280;2023-02-22T13:56:45;94662.28;;;18.83;29.91
33953;BME280;20231;42.710;23.280;2023-02-22T13:59:38;94677.22;;;19.08;30.12
33953;BME280;20231;42.710;23.280;2023-02-22T14:02:04;94684.44;;;19.20;30.81
33953;BME280;20231;42.710;23.280;2023-02-22T14:04:40;94675.97;;;19.18;29.66
33953;BME280;20231;42.710;23.280;2023-02-22T14:09:47;94674.78;;;19.42;29.63
33953;BME280;20231;42.710;23.280;2023-02-22T14:15:19;94683.13;;;19.53;28.91
33953;BME280;20231;42.710;23.280;2023-02-22T14:20:35;94681.47;;;19.76;nan
33953;BME280;20231;42.710;23.280;2023-02-22T14:23:33;94681.91;;;19.78;27.93
33953;BME280;20231;42.710;23.280;2023-02-22T14:26:26;94687.53;;;20.00;28.09
33953;BME280;20231;42.710;23.280;2023-02-22T14:39:19;94680.78;;;20.06;28.86
33953;BME280;20231;42.710;23.280;2023-02-22T14:41:54;94669.69;;;19.65;28.26
33953;BME280;20231;42.710;23.280;2023-02-22T14:44:24;94675.44;;;19.79;28.26
33953;BME280;20231;42.710;23.280;2023-02-22T14:46:54;94680.09;;;19.54;28.35
33953;BME280;20231;42.710;23.280;2023-02-22T14:49:21;94669.75;;;19.53;28.58
33953;BME280;20231;42.710;23.280;2023-02-22T14:51:59;94662.72;;;19.48;28.76
33953;BME280;20231;42.710;23.280;2023-02-22T14:54:34;94659.31;;;19.36;28.85
33953;BME280;20231;42.710;23.280;2023-02-22T14:57:18;94663.03;;;19.20;29.74
33953;BME280;20231;42.710;23.280;2023-02-22T15:00:16;94671.50;;;19.34;30.59
33953;BME280;20231;42.710;23.280;2023-02-22T15:02:49;94672.47;;;19.41;30.20
33953;BME280;20231;42.710;23.280;2023-02-22T15:05:17;94670.00;;;19.48;30.63
33953;BME280;20231;42.710;23.280;2023-02-22T15:08:00;94665.34;;;19.33;31.02
33953;BME280;20231;42.710;23.280;2023-02-22T15:10:39;94661.28;;;19.00;31.44
33953;BME280;20231;42.710;23.280;2023-02-22T15:13:17;94667.41;;;19.00;31.81
33953;BME280;20231;42.710;23.280;2023-02-22T15:15:53;94655.97;;;18.64;32.29
33953;BME280;20231;42.710;23.280;2023-02-22T15:18:43;94675.09;;;18.90;32.33
33953;BME280;20231;42.710;23.280;2023-02-22T15:21:12;94676.97;;;19.01;31.91
33953;BME280;20231;42.710;23.280;2023-02-22T15:23:46;94667.84;;;19.14;32.09
33953;BME280;20231;42.710;23.280;2023-02-22T15:26:45;94679.31;;;19.27;32.15
33953;BME280;20231;42.710;23.280;2023-02-22T15:29:17;94671.88;;;19.47;31.74
33953;BME280;20231;42.710;23.280;2023-02-22T15:31:43;94670.13;;;19.39;31.66
33953;BME280;20231;42.710;23.280;2023-02-22T15:36:40;94666.28;;;19.25;31.89
33953;BME280;20231;42.710;23.280;2023-02-22T15:39:05;94677.44;;;19.15;32.08
33953;BME280;20231;42.710;23.280;2023-02-22T15:41:33;94680.53;;;19.05;32.53
33953;BME280;20231;42.710;23.280;2023-02-22T15:44:06;94681.31;;;19.06;32.61